Time;durP1;ratioP1;P1;durP2;ratioP2;P2;SDS_P1;SDS_P2;PMS_P1;PMS_P2;Temp;Humidity;BMP_temperature;BMP_pressure;BME280_temperature;BME280_humidity;BME280_pressure;Samples;Min_cycle;Max_cycle;Signal;HPM_P1;HPM_P2
2020/12/31 00:00:19;;;;;;;6.13;3.13;;;;;;;5.75;45.47;100035.34;5025555;28;20069;-69
2020/12/31 00:02:46;;;;;;;5.63;3.03;;;;;;;5.74;45.38;100033.59;5024853;28;20041;-69
2020/12/31 00:05:13;;;;;;;5.07;3.13;;;;;;;5.73;45.63;100034.59;5025184;28;20037;-69
2020/12/31 00:07:40;;;;;;;4.40;2.90;;;;;;;5.73;45.69;100029.16;5027840;28;20050;-69
2020/12/31 00:10:07;;;;;;;5.28;3.13;;;;;;;5.73;45.76;100028.31;5024846;28;20491;-68
2020/12/31 00:12:35;;;;;;;6.45;3.35;;;;;;;5.73;45.77;100033.72;5030696;28;20483;-68
2020/12/31 00:15:04;;;;;;;5.00;2.80;;;;;;;5.73;45.66;100025.59;5031606;28;20061;-68
2020/12/31 00:17:31;;;;;;;5.28;2.97;;;;;;;5.72;45.48;100029.28;5029995;28;20053;-68
2020/12/31 00:19:58;;;;;;;5.43;2.80;;;;;;;5.71;45.53;100020.28;5028831;28;20499;-68
2020/12/31 00:22:25;;;;;;;5.50;2.90;;;;;;;5.71;45.60;100024.84;5030564;28;20479;-69
2020/12/31 00:24:52;;;;;;;5.22;3.10;;;;;;;5.70;45.79;100023.09;5024567;28;20419;-69
2020/12/31 00:27:19;;;;;;;4.57;2.78;;;;;;;5.69;45.79;100013.22;5032203;28;20442;-69
2020/12/31 00:29:47;;;;;;;5.40;3.03;;;;;;;5.69;45.79;100007.81;5028108;28;20447;-69
2020/12/31 00:32:14;;;;;;;5.85;3.10;;;;;;;5.70;45.94;100004.09;5021726;28;20045;-69
2020/12/31 00:34:42;;;;;;;4.97;2.90;;;;;;;5.67;45.81;100001.66;5031147;28;20128;-70
2020/12/31 00:37:09;;;;;;;5.25;2.80;;;;;;;5.67;45.87;99998.94;5029607;28;20064;-69
2020/12/31 00:39:36;;;;;;;4.65;2.80;;;;;;;5.65;46.05;100001.78;5030789;28;20047;-69
2020/12/31 00:42:03;;;;;;;4.93;2.85;;;;;;;5.66;45.98;100002.63;5028458;28;20565;-69
2020/12/31 00:44:30;;;;;;;5.43;3.10;;;;;;;5.64;46.00;99993.75;5031669;28;20125;-69
2020/12/31 00:46:58;;;;;;;5.55;3.20;;;;;;;5.64;46.43;99996.47;5026213;28;20527;-69
2020/12/31 00:49:26;;;;;;;5.30;2.78;;;;;;;5.63;46.02;99992.88;5028705;28;20041;-69
2020/12/31 00:51:55;;;;;;;5.47;2.95;;;;;;;5.60;45.88;99993.97;5012869;28;20510;-69
2020/12/31 00:54:22;;;;;;;5.65;3.10;;;;;;;5.61;46.24;99994.84;5029868;28;20103;-69
2020/12/31 00:56:50;;;;;;;5.13;2.88;;;;;;;5.61;46.11;99994.84;5030111;28;20049;-69
2020/12/31 00:59:18;;;;;;;8.25;3.22;;;;;;;5.60;46.19;99985.84;5030861;28;20049;-69
2020/12/31 01:01:46;;;;;;;5.35;3.17;;;;;;;5.59;46.31;99986.81;5029645;28;20044;-69
2020/12/31 01:04:14;;;;;;;5.40;3.28;;;;;;;5.58;46.44;99987.84;5030568;28;20048;-69
2020/12/31 01:06:42;;;;;;;5.95;3.35;;;;;;;5.59;46.25;99984.13;5029619;28;20041;-69
2020/12/31 01:09:09;;;;;;;5.22;3.15;;;;;;;5.57;46.59;99988.81;5030479;28;20037;-69
2020/12/31 01:11:38;;;;;;;4.60;3.20;;;;;;;5.58;46.41;99985.13;5028516;28;20049;-69
2020/12/31 01:14:05;;;;;;;6.40;3.17;;;;;;;5.57;46.61;99977.09;5028771;28;20539;-69
2020/12/31 01:16:33;;;;;;;6.30;3.03;;;;;;;5.57;46.60;99980.69;5031067;28;20053;-69
2020/12/31 01:19:01;;;;;;;6.22;3.25;;;;;;;5.56;46.43;99980.81;5026724;28;20128;-69
2020/12/31 01:21:28;;;;;;;6.43;3.60;;;;;;;5.55;46.54;99974.50;5029558;28;20052;-69
2020/12/31 01:23:56;;;;;;;5.75;3.35;;;;;;;5.55;46.56;99981.78;5010416;28;20056;-69
2020/12/31 01:26:31;;;;;;;5.63;3.25;;;;;;;5.56;46.56;99984.38;5030595;28;20042;-69
2020/12/31 01:28:59;;;;;;;7.53;3.88;;;;;;;5.54;46.64;99982.75;5031039;28;20037;-69
2020/12/31 01:31:26;;;;;;;6.55;3.28;;;;;;;5.52;46.68;99977.44;5029739;28;20045;-68
2020/12/31 01:33:53;;;;;;;6.53;3.78;;;;;;;5.52;46.60;99973.88;5029519;28;20029;-68
2020/12/31 01:36:20;;;;;;;6.00;3.65;;;;;;;5.51;46.52;99978.44;5028836;28;20578;-69
2020/12/31 01:38:48;;;;;;;6.50;3.67;;;;;;;5.51;46.72;99985.75;5027809;28;20049;-69
2020/12/31 01:41:22;;;;;;;5.78;3.55;;;;;;;5.53;46.43;99981.91;5029940;28;20045;-69
2020/12/31 01:44:02;;;;;;;6.38;3.42;;;;;;;5.52;46.60;99971.16;5027863;28;20064;-69
2020/12/31 01:46:32;;;;;;;7.45;3.63;;;;;;;5.49;46.28;99979.56;5030166;28;20038;-67
2020/12/31 01:49:00;;;;;;;6.05;3.72;;;;;;;5.47;46.40;99979.69;5028912;28;20038;-68
2020/12/31 01:51:27;;;;;;;6.65;3.70;;;;;;;5.46;46.53;99975.19;5029184;28;20150;-68
2020/12/31 01:53:56;;;;;;;5.25;3.28;;;;;;;5.46;46.53;99985.19;5029565;28;20124;-68
2020/12/31 01:56:28;;;;;;;5.40;3.63;;;;;;;5.46;46.41;99979.75;5028721;28;20038;-68
2020/12/31 01:58:55;;;;;;;6.18;3.63;;;;;;;5.44;46.76;99970.88;5029975;28;20049;-68
2020/12/31 02:01:24;;;;;;;6.72;3.78;;;;;;;5.42;46.37;99971.03;5027212;28;20680;-67
2020/12/31 02:03:51;;;;;;;5.80;3.40;;;;;;;5.42;46.57;99978.28;5029335;28;20087;-67
2020/12/31 02:06:20;;;;;;;6.70;3.45;;;;;;;5.42;46.44;99975.59;5025397;28;20049;-67
2020/12/31 02:08:47;;;;;;;6.75;3.63;;;;;;;5.41;46.32;99976.56;5025241;28;20045;-67
2020/12/31 02:11:17;;;;;;;6.85;3.80;;;;;;;5.40;46.44;99975.69;5027730;28;20440;-68
2020/12/31 02:13:46;;;;;;;5.47;3.33;;;;;;;5.41;46.38;99973.84;5028923;28;20042;-68
2020/12/31 02:16:15;;;;;;;5.10;3.40;;;;;;;5.40;46.80;99967.56;5027551;28;20064;-67
2020/12/31 02:18:54;;;;;;;6.38;3.65;;;;;;;5.42;46.48;99975.59;5028696;28;20580;-68
2020/12/31 02:21:23;;;;;;;6.18;3.70;;;;;;;5.39;46.47;99968.53;5023199;28;20041;-67
2020/12/31 02:23:52;;;;;;;7.15;3.72;;;;;;;5.40;46.53;99963.97;5025872;28;20034;-67
2020/12/31 02:26:20;;;;;;;7.38;3.55;;;;;;;5.39;46.68;99965.81;5028413;28;20033;-68
2020/12/31 02:28:48;;;;;;;5.53;3.53;;;;;;;5.38;46.58;99974.94;5028557;28;20564;-67
2020/12/31 02:31:16;;;;;;;7.03;3.90;;;;;;;5.39;46.51;99970.38;5025352;28;20044;-68
2020/12/31 02:33:45;;;;;;;4.95;3.20;;;;;;;5.39;46.23;99971.25;5027633;28;22200;-70
2020/12/31 02:36:12;;;;;;;4.85;3.33;;;;;;;5.38;46.80;99979.50;5028415;28;20041;-68
2020/12/31 02:38:40;;;;;;;5.10;3.38;;;;;;;5.39;46.97;99982.09;5027614;28;20450;-68
2020/12/31 02:41:10;;;;;;;5.68;3.45;;;;;;;5.38;46.75;99977.66;5029019;28;20580;-68
2020/12/31 02:43:37;;;;;;;4.80;3.08;;;;;;;5.37;46.82;99975.91;5024407;28;20049;-68
2020/12/31 02:46:07;;;;;;;4.93;2.80;;;;;;;5.37;46.65;99973.22;5028650;28;20045;-68
2020/12/31 02:48:34;;;;;;;4.95;2.95;;;;;;;5.36;46.74;99973.31;5027412;28;20147;-68
2020/12/31 02:51:01;;;;;;;4.47;2.72;;;;;;;5.33;46.71;99966.31;5027254;28;20120;-68
2020/12/31 02:53:28;;;;;;;4.78;2.80;;;;;;;5.33;46.84;99963.59;5028234;28;20053;-68
2020/12/31 02:55:55;;;;;;;4.70;2.80;;;;;;;5.33;46.73;99962.75;5028160;28;20042;-68
2020/12/31 02:58:23;;;;;;;4.35;2.63;;;;;;;5.32;46.60;99959.16;5026499;28;20060;-68
2020/12/31 03:00:51;;;;;;;4.70;2.55;;;;;;;5.31;46.79;99964.69;5027056;28;20119;-68
2020/12/31 03:03:18;;;;;;;5.55;2.50;;;;;;;5.30;46.56;99953.00;5029458;28;20450;-68
2020/12/31 03:05:45;;;;;;;5.03;3.05;;;;;;;5.30;46.75;99952.13;5028049;28;20113;-68
2020/12/31 03:08:12;;;;;;;4.57;2.85;;;;;;;5.29;47.05;99950.38;5025607;28;20111;-68
2020/12/31 03:10:43;;;;;;;6.20;3.25;;;;;;;5.29;46.86;99955.81;5028459;28;20064;-68
2020/12/31 03:13:10;;;;;;;5.93;2.88;;;;;;;5.27;46.90;99953.22;5028064;28;20419;-71
2020/12/31 03:15:38;;;;;;;4.63;2.78;;;;;;;5.28;46.97;99951.38;5027454;28;20056;-70
2020/12/31 03:18:05;;;;;;;4.68;2.97;;;;;;;5.26;47.34;99948.81;5028217;28;20441;-69
2020/12/31 03:20:32;;;;;;;4.22;2.53;;;;;;;5.26;46.88;99943.38;5027688;28;20033;-68
2020/12/31 03:22:59;;;;;;;5.18;2.97;;;;;;;5.26;47.05;99943.38;5028337;28;20049;-68
2020/12/31 03:25:26;;;;;;;5.03;2.97;;;;;;;5.27;47.21;99941.50;5024642;28;20048;-68
2020/12/31 03:27:53;;;;;;;5.07;2.95;;;;;;;5.25;46.98;99938.94;5028540;28;20117;-68
2020/12/31 03:30:21;;;;;;;4.40;2.55;;;;;;;5.25;46.89;99944.38;5026741;28;20065;-68
2020/12/31 03:32:48;;;;;;;4.97;2.67;;;;;;;5.26;46.91;99940.69;5017506;28;20572;-71
2020/12/31 03:35:19;;;;;;;4.97;2.80;;;;;;;5.25;47.34;99938.94;5057255;22;20049;-69
2020/12/31 03:37:47;;;;;;;5.03;2.88;;;;;;;5.23;47.11;99936.34;5049217;28;20862;-69
2020/12/31 03:40:14;;;;;;;5.13;2.40;;;;;;;5.23;47.11;99941.78;5048054;28;20075;-69
2020/12/31 03:42:41;;;;;;;4.60;2.70;;;;;;;5.22;47.02;99931.91;5044794;28;20087;-69
2020/12/31 03:45:08;;;;;;;4.53;2.83;;;;;;;5.21;47.30;99932.88;5058236;28;20407;-69
2020/12/31 03:47:36;;;;;;;5.20;2.80;;;;;;;5.21;47.11;99930.16;5062800;28;20168;-69
2020/12/31 03:50:05;;;;;;;5.43;2.95;;;;;;;5.21;46.94;99930.16;5055822;28;20089;-69
2020/12/31 03:52:32;;;;;;;5.00;2.60;;;;;;;5.20;47.19;99923.03;5053156;28;20048;-69
2020/12/31 03:54:59;;;;;;;5.28;2.75;;;;;;;5.20;47.16;99928.44;5053366;28;20168;-69
2020/12/31 03:57:26;;;;;;;4.20;2.53;;;;;;;5.20;47.28;99923.03;5048139;28;20041;-69
2020/12/31 03:59:54;;;;;;;5.07;2.92;;;;;;;5.20;47.27;99919.44;5049661;28;20091;-70
2020/12/31 04:02:21;;;;;;;4.55;2.88;;;;;;;5.19;47.31;99913.16;5048295;28;20094;-70
2020/12/31 04:04:48;;;;;;;4.88;2.97;;;;;;;5.19;47.16;99909.56;5052733;28;20049;-70
2020/12/31 04:07:17;;;;;;;4.57;2.70;;;;;;;5.19;47.38;99910.44;5061589;28;20052;-70
2020/12/31 04:09:44;;;;;;;4.40;2.78;;;;;;;5.18;47.30;99902.47;5052000;28;20039;-70
2020/12/31 04:12:11;;;;;;;5.93;3.10;;;;;;;5.17;47.31;99895.31;5052229;28;20489;-71
2020/12/31 04:14:39;;;;;;;5.10;3.08;;;;;;;5.16;47.26;99897.16;5054112;28;20120;-71
2020/12/31 04:17:06;;;;;;;4.97;3.10;;;;;;;5.16;47.29;99890.88;5045496;28;20102;-70
2020/12/31 04:19:34;;;;;;;5.28;3.10;;;;;;;5.15;47.51;99891.84;5046368;28;20503;-70
2020/12/31 04:22:01;;;;;;;5.05;2.85;;;;;;;5.14;47.29;99880.13;5052702;28;20049;-70
2020/12/31 04:24:30;;;;;;;5.95;3.33;;;;;;;5.14;47.65;99877.44;5051135;28;20598;-70
2020/12/31 04:26:57;;;;;;;5.30;2.95;;;;;;;5.13;47.49;99875.69;5052849;28;20041;-70
2020/12/31 04:29:24;;;;;;;7.45;3.53;;;;;;;5.13;47.60;99881.13;5050143;28;20043;-70
2020/12/31 04:31:51;;;;;;;6.53;3.00;;;;;;;5.14;47.67;99868.44;5051436;28;20044;-70
2020/12/31 04:34:19;;;;;;;4.38;2.83;;;;;;;5.14;47.70;99876.56;5048609;28;20046;-70
2020/12/31 04:36:46;;;;;;;4.50;2.67;;;;;;;5.12;47.53;99871.25;5040132;28;20508;-70
2020/12/31 04:39:13;;;;;;;5.18;2.75;;;;;;;5.12;47.63;99864.97;5050222;28;20037;-71
2020/12/31 04:41:47;;;;;;;4.90;2.95;;;;;;;5.13;47.93;99867.56;5052640;28;20045;-71
2020/12/31 04:44:16;;;;;;;5.85;3.08;;;;;;;5.13;47.88;99861.28;5048802;28;20128;-71
2020/12/31 04:46:53;;;;;;;6.03;2.97;;;;;;;5.13;47.90;99862.13;5051162;28;20064;-71
2020/12/31 04:49:21;;;;;;;4.82;3.03;;;;;;;5.11;47.80;99852.41;5046878;28;20048;-71
2020/12/31 04:51:49;;;;;;;6.65;2.70;;;;;;;5.12;47.81;99863.13;5051989;28;20548;-71
2020/12/31 04:54:17;;;;;;;4.53;2.53;;;;;;;5.11;47.85;99858.69;5051478;28;20041;-70
2020/12/31 04:56:47;;;;;;;5.07;2.70;;;;;;;5.12;47.86;99851.41;5051552;28;20091;-71
2020/12/31 04:59:15;;;;;;;4.80;2.70;;;;;;;5.11;47.98;99855.97;5045242;28;20076;-70
2020/12/31 05:01:45;;;;;;;4.45;2.55;;;;;;;5.13;48.08;99858.56;5049799;28;20087;-70
2020/12/31 05:04:13;;;;;;;4.47;2.60;;;;;;;5.12;48.04;99859.53;5052266;28;20052;-70
2020/12/31 05:06:41;;;;;;;4.72;2.80;;;;;;;5.12;48.02;99863.13;5046999;28;20064;-70
2020/12/31 05:09:15;;;;;;;5.05;2.90;;;;;;;5.14;48.33;99857.59;5052464;28;20041;-70
2020/12/31 05:11:48;;;;;;;5.10;2.65;;;;;;;5.13;48.19;99851.28;5048017;28;20043;-70
2020/12/31 05:14:34;;;;;;;4.93;2.42;;;;;;;5.13;48.32;99854.00;5050058;28;20052;-69
2020/12/31 05:17:15;;;;;;;4.90;2.65;;;;;;;5.13;48.51;99862.13;5048798;28;20048;-69
2020/12/31 05:19:42;;;;;;;4.88;2.50;;;;;;;5.11;48.14;99861.38;5050509;28;20491;-70
2020/12/31 05:22:14;;;;;;;4.22;2.28;;;;;;;5.14;48.12;99854.88;5051781;28;20500;-70
2020/12/31 05:24:46;;;;;;;4.18;2.70;;;;;;;5.12;48.02;99856.84;5043990;28;20407;-69
2020/12/31 05:27:22;;;;;;;4.70;2.45;;;;;;;5.13;48.31;99856.72;5051835;28;20049;-69
2020/12/31 05:30:01;;;;;;;5.43;2.60;;;;;;;5.13;48.59;99855.84;5048183;28;20041;-69
2020/12/31 05:32:30;;;;;;;4.53;2.17;;;;;;;5.11;48.02;99849.69;5050235;28;20170;-69
2020/12/31 05:34:58;;;;;;;4.70;2.30;;;;;;;5.11;47.83;99850.56;5050315;28;20091;-69
2020/12/31 05:37:27;;;;;;;4.30;2.17;;;;;;;5.10;48.31;99854.25;5049778;28;20052;-69
2020/12/31 05:40:03;;;;;;;4.35;2.35;;;;;;;5.11;48.14;99852.41;5050696;28;20119;-69
2020/12/31 05:42:34;;;;;;;4.30;2.25;;;;;;;5.09;48.19;99844.41;5051124;28;20709;-69
2020/12/31 05:45:13;;;;;;;4.38;2.13;;;;;;;5.11;48.54;99849.69;5040861;28;20123;-69
2020/12/31 05:47:46;;;;;;;3.72;2.22;;;;;;;5.08;48.12;99849.94;5049038;28;20128;-69
2020/12/31 05:50:18;;;;;;;4.65;1.95;;;;;;;5.07;48.28;99845.50;5045984;28;20041;-69
2020/12/31 05:52:47;;;;;;;3.83;2.17;;;;;;;5.03;48.22;99842.16;5047400;28;20028;-69
2020/12/31 05:55:16;;;;;;;4.03;1.98;;;;;;;5.05;48.11;99850.19;5052046;28;20435;-69
2020/12/31 05:57:46;;;;;;;3.30;2.00;;;;;;;5.06;48.36;99854.63;5050498;28;20099;-69
2020/12/31 06:00:16;;;;;;;3.53;1.92;;;;;;;5.04;47.94;99849.31;5050187;28;20040;-69
2020/12/31 06:02:47;;;;;;;3.60;2.20;;;;;;;5.03;48.14;99853.00;5048107;28;20037;-69
2020/12/31 06:05:15;;;;;;;3.25;1.73;;;;;;;5.02;48.03;99856.69;5047159;28;20129;-70
2020/12/31 06:07:44;;;;;;;3.72;1.90;;;;;;;5.02;48.03;99862.13;5049939;28;20067;-70
2020/12/31 06:10:14;;;;;;;3.55;2.00;;;;;;;5.01;48.25;99855.00;5046538;28;20037;-70
2020/12/31 06:12:52;;;;;;;2.88;1.58;;;;;;;5.02;48.34;99861.25;5046040;28;20503;-70
2020/12/31 06:15:25;;;;;;;3.95;2.17;;;;;;;5.01;48.21;99854.13;5048579;28;20045;-70
2020/12/31 06:17:53;;;;;;;3.30;1.83;;;;;;;4.98;48.04;99862.50;5048782;28;20044;-71
2020/12/31 06:20:21;;;;;;;4.35;1.88;;;;;;;5.00;48.17;99857.81;5049791;28;20106;-71
2020/12/31 06:23:03;;;;;;;3.00;1.73;;;;;;;5.01;48.46;99854.13;5044827;28;20044;-71
2020/12/31 06:25:39;;;;;;;2.97;1.80;;;;;;;4.97;48.21;99848.06;5050489;28;20044;-71
2020/12/31 06:28:16;;;;;;;2.97;1.50;;;;;;;5.00;48.52;99855.13;5045981;28;20049;-71
2020/12/31 06:30:46;;;;;;;2.67;1.60;;;;;;;4.97;48.51;99852.63;5043595;28;20071;-70
2020/12/31 06:33:21;;;;;;;3.60;1.80;;;;;;;4.98;48.40;99857.06;5047004;28;20044;-70
2020/12/31 06:35:54;;;;;;;2.90;1.50;;;;;;;4.96;48.20;99851.78;5049430;28;20045;-70
2020/12/31 06:38:29;;;;;;;2.45;1.30;;;;;;;4.94;48.77;99848.31;5048511;28;20102;-71
2020/12/31 06:40:57;;;;;;;3.42;1.55;;;;;;;4.93;48.50;99851.16;5048226;28;20041;-71
2020/12/31 06:43:37;;;;;;;2.95;1.50;;;;;;;4.95;48.72;99851.88;5049093;28;20075;-70
2020/12/31 06:46:19;;;;;;;3.83;1.55;;;;;;;4.94;48.52;99850.16;5044675;28;20456;-70
2020/12/31 06:48:52;;;;;;;2.85;1.42;;;;;;;4.93;48.36;99848.47;5048619;28;20396;-70
2020/12/31 06:51:25;;;;;;;1.92;1.27;;;;;;;4.90;48.61;99845.97;5049898;28;20126;-70
2020/12/31 06:53:53;;;;;;;2.30;1.30;;;;;;;4.90;48.43;99851.41;5047662;28;20488;-70
2020/12/31 06:56:40;;;;;;;3.00;1.40;;;;;;;4.91;48.77;99845.88;5047996;28;20384;-69
2020/12/31 06:59:26;;;;;;;4.35;1.98;;;;;;;4.90;48.93;99841.41;5062393;28;20040;-69
2020/12/31 07:01:55;;;;;;;3.25;1.88;;;;;;;4.88;48.44;99853.34;5048431;28;20156;-69
2020/12/31 07:04:30;;;;;;;2.60;1.90;;;;;;;4.90;48.76;99838.72;5043274;28;20551;-69
2020/12/31 07:06:58;;;;;;;3.72;2.20;;;;;;;4.84;48.51;99848.19;5049487;28;20526;-69
2020/12/31 07:09:31;;;;;;;4.40;2.10;;;;;;;4.86;48.51;99853.47;5049625;28;20052;-69
2020/12/31 07:12:02;;;;;;;4.00;2.38;;;;;;;4.82;48.21;99854.72;5047424;28;20515;-70
2020/12/31 07:14:31;;;;;;;4.75;2.33;;;;;;;4.79;48.32;99850.38;5047661;28;20132;-70
2020/12/31 07:17:01;;;;;;;4.57;2.33;;;;;;;4.78;48.50;99850.50;5047840;28;20548;-71
2020/12/31 07:19:42;;;;;;;4.72;2.67;;;;;;;4.77;48.75;99846.09;5044484;28;20140;-71
2020/12/31 07:22:23;;;;;;;4.28;2.17;;;;;;;4.72;48.93;99843.72;5042686;28;20065;-70
2020/12/31 07:24:52;;;;;;;4.47;2.30;;;;;;;4.70;48.68;99848.41;5041220;28;20040;-70
2020/12/31 07:27:23;;;;;;;4.50;2.40;;;;;;;4.70;48.65;99845.69;5050677;28;20071;-70
2020/12/31 07:30:00;;;;;;;3.90;2.42;;;;;;;4.70;48.53;99847.53;5047732;28;20052;-69
2020/12/31 07:32:53;;;;;;;4.43;2.30;;;;;;;4.66;48.87;99846.94;5049144;28;20055;-69
2020/12/31 07:35:33;;;;;;;4.03;2.30;;;;;;;4.65;48.58;99849.75;5042457;28;20458;-70
2020/12/31 07:38:04;;;;;;;4.00;2.03;;;;;;;4.63;48.45;99847.16;5045221;28;20435;-69
2020/12/31 07:40:40;;;;;;;3.97;2.20;;;;;;;4.64;48.61;99848.00;5048438;28;20087;-69
2020/12/31 07:43:09;;;;;;;3.95;2.20;;;;;;;4.62;48.47;99847.25;5047243;28;20389;-69
2020/12/31 07:45:38;;;;;;;3.83;2.17;;;;;;;4.61;48.40;99850.94;5044605;28;20043;-69
2020/12/31 07:48:06;;;;;;;3.88;2.40;;;;;;;4.56;48.26;99848.63;5044777;28;20465;-69
2020/12/31 07:50:33;;;;;;;4.38;2.50;;;;;;;4.56;48.59;99850.47;5054925;28;20042;-69
2020/12/31 07:53:01;;;;;;;4.82;2.47;;;;;;;4.52;48.73;99852.56;5039387;28;20041;-69
2020/12/31 07:55:29;;;;;;;3.90;2.20;;;;;;;4.52;48.32;99851.69;5045885;28;20041;-69
2020/12/31 07:57:57;;;;;;;4.10;2.35;;;;;;;4.50;48.46;99861.78;5049972;28;20056;-69
2020/12/31 08:00:24;;;;;;;4.00;2.28;;;;;;;4.47;48.42;99854.72;5042307;28;20048;-69
2020/12/31 08:02:55;;;;;;;3.22;1.90;;;;;;;4.46;48.46;99855.72;5047187;28;20041;-69
2020/12/31 08:05:24;;;;;;;4.00;2.15;;;;;;;4.44;48.70;99863.13;5045541;28;20112;-69
2020/12/31 08:07:53;;;;;;;4.40;2.45;;;;;;;4.41;48.55;99856.09;5047981;28;20049;-69
2020/12/31 08:10:32;;;;;;;3.70;2.28;;;;;;;4.41;49.04;99849.81;5046279;28;20049;-69
2020/12/31 08:13:01;;;;;;;3.95;2.20;;;;;;;4.39;48.67;99849.03;5060937;28;20041;-69
2020/12/31 08:15:31;;;;;;;4.38;2.45;;;;;;;4.35;48.73;99850.28;5045499;28;20068;-69
2020/12/31 08:18:02;;;;;;;4.78;2.50;;;;;;;4.36;48.66;99846.56;5045098;28;20481;-69
2020/12/31 08:20:32;;;;;;;3.55;2.40;;;;;;;4.35;48.96;99845.72;5047141;28;20037;-69
2020/12/31 08:23:02;;;;;;;3.95;2.30;;;;;;;4.35;48.90;99843.03;5046691;28;20105;-68
2020/12/31 08:25:34;;;;;;;5.03;2.83;;;;;;;4.36;49.03;99846.56;5047406;28;20068;-69
2020/12/31 08:28:04;;;;;;;4.72;2.70;;;;;;;4.35;49.07;99842.16;5041479;28;20049;-68
2020/12/31 08:30:33;;;;;;;4.45;3.00;;;;;;;4.34;48.94;99845.84;5044230;28;20063;-69
2020/12/31 08:33:32;;;;;;;4.15;2.63;;;;;;;4.34;49.19;99848.56;5050466;28;20179;-68
2020/12/31 08:35:59;;;;;;;4.60;2.63;;;;;;;4.30;48.76;99842.50;5048146;28;20071;-69
2020/12/31 08:38:27;;;;;;;4.95;2.85;;;;;;;4.30;48.96;99842.50;5051407;28;20052;-69
2020/12/31 08:40:56;;;;;;;4.53;2.80;;;;;;;4.32;48.77;99843.25;5049539;28;20049;-68
2020/12/31 08:43:25;;;;;;;5.53;3.13;;;;;;;4.31;49.00;99846.94;5052224;28;20550;-68
2020/12/31 08:45:57;;;;;;;4.50;3.10;;;;;;;4.32;48.99;99847.78;5058034;28;20032;-68
2020/12/31 08:48:26;;;;;;;5.97;3.28;;;;;;;4.32;48.84;99858.63;5051351;28;20492;-68
2020/12/31 08:51:05;;;;;;;5.15;2.90;;;;;;;4.34;49.18;99859.38;5046914;28;20129;-68
2020/12/31 08:54:03;;;;;;;4.60;2.92;;;;;;;4.30;48.99;99847.03;5051481;28;20050;-68
2020/12/31 08:56:34;;;;;;;4.80;2.78;;;;;;;4.30;49.15;99847.91;5051237;28;20045;-68
2020/12/31 08:59:06;;;;;;;5.55;3.33;;;;;;;4.32;49.14;99843.25;5055729;28;20064;-68
2020/12/31 09:01:33;;;;;;;4.30;3.28;;;;;;;4.31;49.04;99838.81;5045224;28;20041;-68
2020/12/31 09:04:06;;;;;;;5.57;3.40;;;;;;;4.32;49.36;99832.41;5051532;28;20029;-69
2020/12/31 09:06:35;;;;;;;5.47;3.40;;;;;;;4.30;49.05;99837.06;5046641;28;20191;-68
2020/12/31 09:09:03;;;;;;;5.28;3.03;;;;;;;4.30;48.99;99837.06;5050864;28;20049;-68
2020/12/31 09:11:31;;;;;;;5.25;3.03;;;;;;;4.30;49.01;99836.22;5052103;28;20037;-68
2020/12/31 09:14:07;;;;;;;5.28;3.05;;;;;;;4.34;49.40;99843.13;5050703;28;20422;-68
2020/12/31 09:16:35;;;;;;;5.63;3.47;;;;;;;4.31;48.93;99837.94;5048566;28;20496;-68
2020/12/31 09:19:03;;;;;;;4.85;3.10;;;;;;;4.32;49.18;99840.53;5053853;28;20286;-68
2020/12/31 09:21:30;;;;;;;5.07;3.28;;;;;;;4.31;49.19;99841.50;5048905;28;20486;-68
2020/12/31 09:24:12;;;;;;;5.88;3.50;;;;;;;4.35;49.38;99839.44;5048583;28;20041;-68
2020/12/31 09:27:10;;;;;;;5.75;3.20;;;;;;;4.33;49.75;99844.97;5050450;28;20499;-68
2020/12/31 09:29:38;;;;;;;5.30;3.13;;;;;;;4.30;49.15;99845.19;5050445;28;20048;-68
2020/12/31 09:32:09;;;;;;;5.35;3.00;;;;;;;4.35;49.24;99844.88;5027923;28;20171;-68
2020/12/31 09:34:37;;;;;;;5.75;3.45;;;;;;;4.33;49.32;99839.56;5051324;28;20048;-68
2020/12/31 09:37:04;;;;;;;6.05;3.53;;;;;;;4.35;49.33;99845.72;5049882;28;20036;-68
2020/12/31 09:39:33;;;;;;;5.60;3.20;;;;;;;4.37;49.36;99848.28;5048370;28;20047;-68
2020/12/31 09:42:01;;;;;;;5.93;3.45;;;;;;;4.36;49.39;99843.84;5051309;28;20051;-69
2020/12/31 09:44:29;;;;;;;5.65;3.13;;;;;;;4.36;49.18;99847.44;5045102;28;20037;-68
2020/12/31 09:46:56;;;;;;;6.18;3.70;;;;;;;4.36;49.25;99847.44;5049619;28;20033;-67
2020/12/31 09:49:24;;;;;;;5.65;3.45;;;;;;;4.38;49.32;99848.19;5044749;28;20048;-68
2020/12/31 09:51:51;;;;;;;6.25;3.30;;;;;;;4.38;49.01;99850.88;5049173;28;20040;-67
2020/12/31 09:54:19;;;;;;;7.43;3.80;;;;;;;4.38;49.22;99848.19;5050496;28;20041;-68
2020/12/31 09:56:48;;;;;;;4.85;3.33;;;;;;;4.40;49.35;99850.78;5047389;28;20037;-67
2020/12/31 09:59:15;;;;;;;6.53;3.55;;;;;;;4.39;49.31;99839.09;5050196;28;20045;-68
2020/12/31 10:01:45;;;;;;;6.15;3.60;;;;;;;4.40;49.48;99840.81;5038521;28;20523;-67
2020/12/31 10:04:12;;;;;;;4.85;3.00;;;;;;;4.41;49.21;99837.13;5051419;28;20451;-67
2020/12/31 10:06:45;;;;;;;7.25;3.33;;;;;;;4.43;49.59;99843.28;5045859;28;20087;-68
2020/12/31 10:09:14;;;;;;;4.68;3.08;;;;;;;4.39;49.29;99838.22;5050032;28;20044;-67
2020/12/31 10:11:46;;;;;;;5.22;3.33;;;;;;;4.43;49.36;99840.59;5048414;28;20503;-67
2020/12/31 10:14:14;;;;;;;5.68;3.00;;;;;;;4.43;49.07;99839.72;5047776;28;20065;-68
2020/12/31 10:16:41;;;;;;;5.05;3.05;;;;;;;4.42;49.08;99846.97;5044251;28;20036;-68
2020/12/31 10:19:09;;;;;;;7.10;3.80;;;;;;;4.43;49.12;99831.59;5046579;28;20040;-68
2020/12/31 10:21:36;;;;;;;6.50;3.70;;;;;;;4.43;49.13;99834.31;5044991;28;20045;-68
2020/12/31 10:24:04;;;;;;;5.47;3.75;;;;;;;4.45;49.29;99835.03;5046014;28;20052;-68
2020/12/31 10:26:32;;;;;;;5.80;3.55;;;;;;;4.44;49.36;99834.16;5065638;28;20124;-68
2020/12/31 10:28:59;;;;;;;6.13;3.15;;;;;;;4.45;49.35;99835.88;5049419;28;20396;-68
2020/12/31 10:31:27;;;;;;;5.78;3.35;;;;;;;4.46;49.50;99831.34;5051644;28;20043;-68
2020/12/31 10:33:54;;;;;;;6.43;3.45;;;;;;;4.46;49.60;99828.63;5050658;28;20029;-68
2020/12/31 10:36:22;;;;;;;6.30;3.67;;;;;;;4.46;49.43;99823.22;5033646;28;20514;-68
2020/12/31 10:38:49;;;;;;;5.78;3.53;;;;;;;4.46;49.54;99825.94;5050283;28;20072;-68
2020/12/31 10:41:16;;;;;;;6.38;4.00;;;;;;;4.46;49.53;99831.34;5050322;28;20033;-68
2020/12/31 10:43:44;;;;;;;5.65;3.53;;;;;;;4.49;49.58;99822.13;5051223;28;20094;-68
2020/12/31 10:46:13;;;;;;;6.93;3.13;;;;;;;4.49;49.16;99823.00;5051517;28;20060;-68
2020/12/31 10:48:41;;;;;;;5.72;3.50;;;;;;;4.50;49.56;99827.44;5049941;28;20056;-69
2020/12/31 10:51:09;;;;;;;5.57;3.05;;;;;;;4.48;49.71;99821.25;5051866;28;20411;-68
2020/12/31 10:53:36;;;;;;;4.55;3.13;;;;;;;4.50;49.68;99818.44;5050524;28;20086;-69
2020/12/31 10:56:05;;;;;;;5.60;3.05;;;;;;;4.53;49.80;99818.19;5051665;28;20588;-68
2020/12/31 10:58:32;;;;;;;5.53;3.25;;;;;;;4.52;49.86;99814.63;5051767;28;20433;-68
2020/12/31 11:01:00;;;;;;;6.43;3.20;;;;;;;4.53;49.56;99821.75;5050586;28;20044;-69
2020/12/31 11:03:28;;;;;;;5.32;2.72;;;;;;;4.56;49.70;99820.66;5051770;28;20041;-69
2020/12/31 11:05:56;;;;;;;4.72;3.08;;;;;;;4.59;49.74;99817.72;5050107;28;20044;-69
2020/12/31 11:08:24;;;;;;;4.43;2.58;;;;;;;4.59;49.82;99809.59;5046652;28;20053;-69
2020/12/31 11:10:51;;;;;;;5.40;3.00;;;;;;;4.60;49.47;99806.78;5050402;28;20041;-69
2020/12/31 11:13:18;;;;;;;4.65;2.83;;;;;;;4.63;49.81;99805.66;5052211;28;20220;-69
2020/12/31 11:15:45;;;;;;;4.15;2.40;;;;;;;4.64;49.71;99807.38;5051815;28;20051;-69
2020/12/31 11:18:13;;;;;;;4.18;2.47;;;;;;;4.67;49.82;99804.44;5051090;28;20399;-68
2020/12/31 11:20:40;;;;;;;4.32;2.33;;;;;;;4.69;49.67;99813.28;5050512;28;20445;-69
2020/12/31 11:23:08;;;;;;;3.85;2.13;;;;;;;4.69;49.59;99803.31;5050866;28;20049;-68
2020/12/31 11:25:36;;;;;;;3.90;2.22;;;;;;;4.70;49.86;99810.47;5050714;28;20037;-69
2020/12/31 11:28:03;;;;;;;3.63;1.98;;;;;;;4.71;49.52;99803.22;5050937;28;20041;-68
2020/12/31 11:30:34;;;;;;;2.92;1.80;;;;;;;4.71;49.38;99805.91;5049272;28;20075;-68
2020/12/31 11:33:01;;;;;;;3.75;2.15;;;;;;;4.72;49.57;99800.38;5048066;28;20033;-69
2020/12/31 11:35:29;;;;;;;4.00;2.15;;;;;;;4.73;49.67;99807.53;5049355;28;20443;-68
2020/12/31 11:37:57;;;;;;;3.65;2.20;;;;;;;4.74;49.51;99805.69;5048932;28;20048;-68
2020/12/31 11:40:25;;;;;;;3.50;1.92;;;;;;;4.76;49.61;99803.72;5050034;28;20120;-68
2020/12/31 11:42:52;;;;;;;3.60;1.83;;;;;;;4.77;49.58;99809.00;5048473;28;20048;-68
2020/12/31 11:45:20;;;;;;;4.10;2.10;;;;;;;4.76;49.52;99810.00;5046147;28;20114;-68
2020/12/31 11:47:47;;;;;;;3.63;2.05;;;;;;;4.79;49.58;99806.16;5043507;28;20045;-68
2020/12/31 11:50:15;;;;;;;3.28;2.10;;;;;;;4.80;49.46;99803.34;5047085;28;20052;-68
2020/12/31 11:52:42;;;;;;;3.90;2.45;;;;;;;4.79;49.51;99798.91;5048332;28;20065;-68